Time;durP1;ratioP1;P1;durP2;ratioP2;P2;SDS_P1;SDS_P2;PMS_P1;PMS_P2;Temp;Humidity;BMP_temperature;BMP_pressure;BME280_temperature;BME280_humidity;BME280_pressure;Samples;Min_cycle;Max_cycle;Signal;HPM_P1;HPM_P2
2022/04/08 00:01:55;;;;;;;24.60;3.85;;;;;;;8.36;100.00;149756.72;1783715;79;20970;-61
2022/04/08 00:04:22;;;;;;;24.80;4.47;;;;;;;8.36;100.00;149756.72;1798279;78;21242;-61
2022/04/08 00:06:50;;;;;;;25.23;3.92;;;;;;;8.35;100.00;149754.12;1787660;79;20950;-60
2022/04/08 00:09:17;;;;;;;27.75;5.30;;;;;;;8.36;100.00;149756.72;1796492;79;20919;-60
2022/04/08 00:11:45;;;;;;;17.25;4.05;;;;;;;8.36;100.00;149756.72;1793082;79;21700;-59
2022/04/08 00:14:13;;;;;;;21.82;4.20;;;;;;;8.36;100.00;149756.72;1788413;79;21015;-60
2022/04/08 00:16:41;;;;;;;23.75;4.87;;;;;;;8.36;100.00;149757.98;1802971;78;20963;-60
2022/04/08 00:19:09;;;;;;;24.47;4.72;;;;;;;8.36;100.00;149757.98;1789847;79;21048;-61
2022/04/08 00:21:36;;;;;;;22.03;4.70;;;;;;;8.34;100.00;149752.81;1797332;79;21021;-60
2022/04/08 00:24:05;;;;;;;25.70;4.87;;;;;;;8.32;100.00;149747.62;1800608;78;20979;-60
2022/04/08 00:26:32;;;;;;;25.02;4.53;;;;;;;8.31;100.00;149746.38;1795196;79;21085;-60
2022/04/08 00:29:00;;;;;;;25.82;4.22;;;;;;;8.30;100.00;149743.78;1794791;79;21242;-60
2022/04/08 00:31:28;;;;;;;32.25;4.90;;;;;;;8.29;100.00;149739.88;1791137;79;21073;-60
2022/04/08 00:33:55;;;;;;;28.17;5.03;;;;;;;8.27;100.00;149734.69;1790972;79;21054;-59
2022/04/08 00:36:22;;;;;;;25.37;4.12;;;;;;;8.26;100.00;149733.38;1798661;79;21495;-59
2022/04/08 00:38:49;;;;;;;29.48;5.05;;;;;;;8.26;100.00;149733.38;1795458;79;20994;-59
2022/04/08 00:41:16;;;;;;;30.65;5.05;;;;;;;8.26;100.00;149733.38;1786579;79;21123;-60
2022/04/08 00:43:44;;;;;;;25.25;5.00;;;;;;;8.26;100.00;149732.09;1794706;79;21046;-60
2022/04/08 00:46:12;;;;;;;24.30;5.33;;;;;;;8.25;100.00;149729.52;1796342;79;21017;-60
2022/04/08 00:48:39;;;;;;;29.70;5.62;;;;;;;8.25;100.00;149729.52;1779460;79;20993;-59
2022/04/08 00:51:07;;;;;;;23.87;5.60;;;;;;;8.24;100.00;149726.92;1799679;78;21027;-60
2022/04/08 00:53:37;;;;;;;26.35;5.17;;;;;;;8.25;100.00;149729.52;1796263;79;21911;-59
2022/04/08 00:56:06;;;;;;;29.63;5.55;;;;;;;8.24;100.00;149728.19;1794272;78;21047;-59
2022/04/08 00:58:35;;;;;;;29.10;4.70;;;;;;;8.26;100.00;149732.09;1739816;80;21005;-60
2022/04/08 01:01:03;;;;;;;35.70;5.45;;;;;;;8.25;100.00;149730.78;1795276;78;21046;-59
2022/04/08 01:03:31;;;;;;;32.70;5.47;;;;;;;8.24;100.00;149728.19;1792859;78;21018;-59
2022/04/08 01:06:00;;;;;;;23.65;5.72;;;;;;;8.24;100.00;149728.19;1797064;79;21197;-59
2022/04/08 01:08:28;;;;;;;40.17;7.05;;;;;;;8.25;100.00;149730.78;1799508;79;21036;-60
2022/04/08 01:10:55;;;;;;;41.63;7.80;;;;;;;8.24;100.00;149728.19;1792174;78;21046;-61
2022/04/08 01:13:23;;;;;;;42.03;7.10;;;;;;;8.24;100.00;149728.19;1799920;78;21057;-59
2022/04/08 01:15:52;;;;;;;35.45;6.78;;;;;;;8.22;100.00;149721.75;1795107;78;20974;-59
2022/04/08 01:18:19;;;;;;;32.90;5.97;;;;;;;8.20;100.00;149716.56;1791846;79;21143;-60
2022/04/08 01:20:47;;;;;;;23.50;5.80;;;;;;;8.16;100.00;149707.48;1778342;78;21010;-59
2022/04/08 01:23:17;;;;;;;38.92;5.70;;;;;;;8.14;100.00;149702.31;1784928;79;21225;-58
2022/04/08 01:25:46;;;;;;;37.73;6.10;;;;;;;8.14;100.00;149703.58;1776414;79;21502;-58
2022/04/08 01:28:14;;;;;;;29.12;5.30;;;;;;;8.14;100.00;149703.58;1780366;80;21006;-58
2022/04/08 01:30:41;;;;;;;37.23;5.65;;;;;;;8.14;100.00;149702.31;1778285;79;22195;-59
2022/04/08 01:33:09;;;;;;;24.40;4.47;;;;;;;8.12;100.00;149698.41;1781100;79;21041;-59
2022/04/08 01:35:36;;;;;;;35.40;4.75;;;;;;;8.10;100.00;149693.22;1776375;79;21065;-59
2022/04/08 01:38:03;;;;;;;26.65;4.62;;;;;;;8.09;100.00;149690.64;1784853;79;21366;-59
2022/04/08 01:40:33;;;;;;;28.15;5.60;;;;;;;8.08;100.00;149688.05;1776105;79;20996;-60
2022/04/08 01:43:02;;;;;;;24.05;4.75;;;;;;;8.07;100.00;149684.14;1775434;78;21003;-61
2022/04/08 01:45:29;;;;;;;22.30;4.95;;;;;;;8.08;100.00;149686.78;1777245;80;21010;-61
2022/04/08 01:47:58;;;;;;;25.75;5.50;;;;;;;8.08;100.00;149686.78;1780894;80;21014;-59
2022/04/08 01:50:25;;;;;;;24.10;4.85;;;;;;;8.07;100.00;149684.14;1780417;79;20971;-60
2022/04/08 01:52:53;;;;;;;22.85;5.35;;;;;;;8.06;100.00;149681.55;1777327;80;21010;-61
2022/04/08 01:55:20;;;;;;;26.12;5.78;;;;;;;8.05;100.00;149678.97;1774300;80;22156;-60
2022/04/08 01:57:47;;;;;;;28.45;4.75;;;;;;;8.02;100.00;149673.80;1782328;80;21527;-59
2022/04/08 02:00:16;;;;;;;26.42;5.37;;;;;;;8.01;100.00;149671.20;1781100;79;21020;-60
2022/04/08 02:02:45;;;;;;;27.02;5.30;;;;;;;7.99;100.00;149664.75;1784788;80;20966;-60
2022/04/08 02:05:13;;;;;;;33.00;6.78;;;;;;;7.97;100.00;149659.58;1784687;80;21016;-59
2022/04/08 02:07:40;;;;;;;29.20;5.58;;;;;;;7.96;100.00;149658.27;1778124;80;21131;-59
2022/04/08 02:10:08;;;;;;;29.18;6.28;;;;;;;7.94;100.00;149653.08;1771066;80;21025;-61
2022/04/08 02:12:37;;;;;;;31.30;5.53;;;;;;;7.90;100.00;149642.73;1784896;79;20978;-60
2022/04/08 02:15:05;;;;;;;35.52;5.72;;;;;;;7.89;100.00;149640.14;1779028;80;20978;-61
2022/04/08 02:17:34;;;;;;;39.25;6.65;;;;;;;7.88;100.00;149637.56;1785080;79;21026;-60
2022/04/08 02:20:01;;;;;;;26.93;5.47;;;;;;;7.88;100.00;149637.56;1781387;79;21218;-60
2022/04/08 02:22:37;;;;;;;29.42;6.15;;;;;;;7.85;100.00;149629.80;1786802;78;21033;-60
2022/04/08 02:25:07;;;;;;;31.48;4.95;;;;;;;7.86;100.00;149632.38;1778052;79;20941;-61
2022/04/08 02:27:34;;;;;;;36.20;5.87;;;;;;;7.83;100.00;149624.56;1778605;79;21035;-58
2022/04/08 02:30:02;;;;;;;31.87;5.67;;;;;;;7.82;100.00;149621.98;1779697;78;21026;-59
2022/04/08 02:32:31;;;;;;;39.30;5.95;;;;;;;7.82;100.00;149621.98;1785153;80;22011;-59
2022/04/08 02:34:58;;;;;;;38.80;6.22;;;;;;;7.82;100.00;149621.98;1784214;80;21027;-59
2022/04/08 02:37:26;;;;;;;28.85;6.37;;;;;;;7.79;100.00;149614.22;1786841;79;21430;-59
2022/04/08 02:39:54;;;;;;;45.03;6.47;;;;;;;7.78;100.00;149611.62;1777647;79;20990;-60
2022/04/08 02:42:22;;;;;;;32.80;5.12;;;;;;;7.78;100.00;149611.62;1786569;79;21035;-59
2022/04/08 02:44:49;;;;;;;21.52;4.87;;;;;;;7.77;100.00;149609.05;1777866;80;21849;-60
2022/04/08 02:47:17;;;;;;;32.73;4.92;;;;;;;7.76;100.00;149607.78;1782138;79;21081;-60
2022/04/08 02:49:45;;;;;;;36.83;4.83;;;;;;;7.76;100.00;149606.45;1778547;78;21105;-59
2022/04/08 02:52:14;;;;;;;30.10;4.60;;;;;;;7.72;100.00;149598.69;1782343;80;21055;-59
2022/04/08 02:54:41;;;;;;;31.62;5.50;;;;;;;7.71;100.00;149596.11;1780820;79;21100;-59
2022/04/08 02:57:08;;;;;;;24.32;5.12;;;;;;;7.71;100.00;149594.78;1781792;80;21020;-59
2022/04/08 02:59:35;;;;;;;31.45;5.83;;;;;;;7.70;100.00;149593.52;1781408;78;21228;-59
2022/04/08 03:02:03;;;;;;;28.83;4.75;;;;;;;7.69;100.00;149590.94;1787582;79;21420;-60
2022/04/08 03:04:30;;;;;;;27.73;5.33;;;;;;;7.67;100.00;149585.75;1773479;80;21158;-61
2022/04/08 03:07:01;;;;;;;22.75;5.37;;;;;;;7.61;100.00;149570.19;1782346;80;21010;-61
2022/04/08 03:09:29;;;;;;;28.67;4.65;;;;;;;7.57;100.00;149559.83;1782570;79;21101;-60
2022/04/08 03:11:56;;;;;;;39.45;5.40;;;;;;;7.55;100.00;149554.66;1778642;80;21452;-60
2022/04/08 03:14:25;;;;;;;31.15;5.20;;;;;;;7.53;100.00;149549.48;1787637;78;21677;-60
2022/04/08 03:16:52;;;;;;;33.00;4.62;;;;;;;7.50;100.00;149541.72;1787997;78;21316;-59
2022/04/08 03:19:21;;;;;;;30.80;4.67;;;;;;;7.50;100.00;149541.72;1786563;79;21009;-59
2022/04/08 03:21:51;;;;;;;47.43;7.12;;;;;;;7.50;100.00;149541.72;1778020;79;21328;-59
2022/04/08 03:24:18;;;;;;;29.32;5.55;;;;;;;7.51;100.00;149545.58;1784501;80;20997;-61
2022/04/08 03:26:48;;;;;;;32.80;6.37;;;;;;;7.52;100.00;149546.91;1776586;79;21106;-60
2022/04/08 03:29:15;;;;;;;43.95;5.53;;;;;;;7.53;100.00;149549.48;1785302;79;21032;-60
2022/04/08 03:31:43;;;;;;;41.95;5.42;;;;;;;7.54;100.00;149552.06;1780363;79;21033;-60
2022/04/08 03:34:10;;;;;;;44.23;5.90;;;;;;;7.55;100.00;149554.66;1780099;80;21233;-60
2022/04/08 03:36:39;;;;;;;49.20;5.65;;;;;;;7.56;100.00;149557.25;1780906;80;21095;-59
2022/04/08 03:39:06;;;;;;;50.08;8.90;;;;;;;7.57;100.00;149559.83;1776049;79;21035;-60
2022/04/08 03:41:33;;;;;;;51.83;5.78;;;;;;;7.58;100.00;149562.42;1771794;80;21473;-60
2022/04/08 03:44:00;;;;;;;35.50;5.85;;;;;;;7.59;100.00;149565.00;1776450;80;20996;-59
2022/04/08 03:46:27;;;;;;;45.03;5.72;;;;;;;7.60;100.00;149567.59;1784517;80;21223;-59
2022/04/08 03:48:54;;;;;;;50.23;6.55;;;;;;;7.62;100.00;149571.50;1775980;79;21072;-59
2022/04/08 03:51:23;;;;;;;39.85;6.10;;;;;;;7.64;100.00;149578.00;1779093;79;22194;-59
2022/04/08 03:53:50;;;;;;;28.50;6.28;;;;;;;7.65;100.00;149579.27;1775087;80;21049;-59
2022/04/08 03:56:18;;;;;;;29.35;5.12;;;;;;;7.67;100.00;149585.75;1779382;80;21103;-59
2022/04/08 03:58:46;;;;;;;35.75;6.00;;;;;;;7.69;100.00;149590.94;1779851;80;21874;-60
2022/04/08 04:01:14;;;;;;;26.90;6.17;;;;;;;7.71;100.00;149596.11;1778598;78;21428;-59
2022/04/08 04:03:42;;;;;;;49.42;7.67;;;;;;;7.74;100.00;149603.86;1783525;80;21030;-60
2022/04/08 04:06:09;;;;;;;42.85;6.37;;;;;;;7.78;100.00;149611.62;1784055;79;21066;-61
2022/04/08 04:08:37;;;;;;;36.08;6.58;;;;;;;7.81;100.00;149620.72;1783791;79;21590;-60
2022/04/08 04:11:06;;;;;;;43.00;6.60;;;;;;;7.83;100.00;149624.56;1775681;78;20892;-60
2022/04/08 04:13:34;;;;;;;47.38;7.12;;;;;;;7.83;100.00;149625.89;1780427;80;21062;-60
2022/04/08 04:16:01;;;;;;;39.63;6.40;;;;;;;7.85;100.00;149631.06;1784263;79;21341;-60
2022/04/08 04:18:28;;;;;;;52.80;7.22;;;;;;;7.87;100.00;149634.97;1771467;80;21034;-61
2022/04/08 04:20:56;;;;;;;40.12;6.58;;;;;;;7.87;100.00;149634.97;1778504;80;21008;-61
2022/04/08 04:23:23;;;;;;;54.35;8.08;;;;;;;7.91;100.00;149645.31;1779351;79;21252;-61
2022/04/08 04:25:50;;;;;;;57.05;7.30;;;;;;;7.93;100.00;149649.19;1765226;80;22335;-61
2022/04/08 04:28:17;;;;;;;51.65;7.22;;;;;;;7.96;100.00;149658.27;1778773;80;21496;-61
2022/04/08 04:30:45;;;;;;;53.38;7.03;;;;;;;7.99;100.00;149666.03;1774448;80;21059;-61
2022/04/08 04:33:12;;;;;;;43.73;7.10;;;;;;;8.05;100.00;149678.97;1782567;80;20946;-61
2022/04/08 04:35:40;;;;;;;33.33;6.37;;;;;;;8.09;100.00;149689.38;1772551;79;21238;-62
2022/04/08 04:38:07;;;;;;;37.55;6.08;;;;;;;8.13;100.00;149699.72;1779376;80;21068;-59
2022/04/08 04:40:35;;;;;;;29.25;5.80;;;;;;;8.18;100.00;149712.66;1780444;80;21038;-61
2022/04/08 04:43:02;;;;;;;38.98;5.35;;;;;;;8.25;100.00;149730.78;1776421;80;21443;-60
2022/04/08 04:45:31;;;;;;;30.48;5.85;;;;;;;8.31;100.00;149746.38;1772293;79;21505;-60
2022/04/08 04:47:59;;;;;;;29.30;5.70;;;;;;;8.38;100.00;149763.16;1772991;79;21181;-61
2022/04/08 04:50:26;;;;;;;29.72;6.05;;;;;;;8.46;100.00;149782.61;1777353;80;21047;-60
2022/04/08 04:52:54;;;;;;;37.10;6.37;;;;;;;8.53;100.00;149800.83;1775538;80;21105;-60
2022/04/08 04:55:21;;;;;;;38.23;7.53;;;;;;;8.62;100.00;149822.86;1773666;80;21572;-60
2022/04/08 04:57:49;;;;;;;38.30;7.00;;;;;;;8.69;100.00;149840.98;1779804;79;21486;-60
2022/04/08 05:00:16;;;;;;;39.10;7.40;;;;;;;8.77;100.00;149860.44;1776647;80;21214;-60
2022/04/08 05:02:44;;;;;;;38.05;7.47;;;;;;;8.81;100.00;149870.80;1777778;80;21539;-60
2022/04/08 05:05:12;;;;;;;34.27;6.78;;;;;;;8.85;100.00;149881.16;1772845;80;20987;-60
2022/04/08 05:07:40;;;;;;;40.40;7.83;;;;;;;8.93;100.00;149899.28;1776479;80;21097;-60
2022/04/08 05:10:08;;;;;;;37.88;8.78;;;;;;;9.01;100.00;149920.05;1776210;80;21051;-61
2022/04/08 05:12:37;;;;;;;30.62;7.80;;;;;;;9.10;100.00;149943.36;1777125;80;21074;-60
2022/04/08 05:15:07;;;;;;;40.65;9.13;;;;;;;9.24;100.00;149977.08;1773759;80;20923;-60
2022/04/08 05:17:36;;;;;;;43.52;7.70;;;;;;;9.36;100.00;150008.17;1777587;79;21017;-59
2022/04/08 05:20:08;;;;;;;31.00;7.08;;;;;;;9.51;100.00;150045.81;1781062;79;21031;-59
2022/04/08 05:22:38;;;;;;;33.38;7.28;;;;;;;9.66;100.00;150082.09;1792655;79;21512;-60
2022/04/08 05:25:07;;;;;;;29.32;6.85;;;;;;;9.83;100.00;150124.87;1796032;78;21137;-58
2022/04/08 05:27:37;;;;;;;37.67;8.48;;;;;;;9.98;100.00;150163.80;1788112;79;20978;-60
2022/04/08 05:30:09;;;;;;;36.60;8.93;;;;;;;10.17;100.00;150210.50;1791497;78;21035;-60
2022/04/08 05:32:37;;;;;;;49.03;12.40;;;;;;;10.34;100.00;150252.03;1790299;79;21046;-60
2022/04/08 05:35:05;;;;;;;50.75;12.15;;;;;;;10.50;100.00;150293.61;1780242;79;20928;-60
2022/04/08 05:37:42;;;;;;;61.60;12.55;;;;;;;10.66;100.00;150332.52;1792400;79;21063;-60
2022/04/08 05:40:17;;;;;;;44.25;9.78;;;;;;;10.79;100.00;150366.28;1783008;79;21491;-60
2022/04/08 05:42:45;;;;;;;45.48;9.43;;;;;;;10.94;100.00;150403.91;1787506;79;21066;-62
2022/04/08 05:45:13;;;;;;;48.87;9.65;;;;;;;11.05;100.00;150431.16;1783107;79;21361;-61
2022/04/08 05:47:40;;;;;;;35.10;7.90;;;;;;;11.13;100.00;150451.92;1780806;79;21078;-60
2022/04/08 05:50:09;;;;;;;43.98;8.55;;;;;;;11.18;100.00;150464.94;1791884;78;21550;-60
2022/04/08 05:52:36;;;;;;;39.58;8.50;;;;;;;11.18;100.00;150464.94;1787671;79;21105;-60
2022/04/08 05:55:04;;;;;;;29.70;7.90;;;;;;;11.18;100.00;150464.94;1793809;78;20956;-60
2022/04/08 05:57:40;;;;;;;34.83;8.40;;;;;;;11.20;100.00;150467.53;1783675;79;21456;-62
2022/04/08 06:00:10;;;;;;;35.28;7.58;;;;;;;11.20;100.00;150467.53;1784294;79;21031;-60
2022/04/08 06:02:38;;;;;;;35.60;8.45;;;;;;;11.18;100.00;150464.94;1792551;78;21590;-60
2022/04/08 06:05:07;;;;;;;37.88;8.93;;;;;;;11.16;100.00;150459.75;1788226;79;21050;-60
2022/04/08 06:07:34;;;;;;;30.88;8.80;;;;;;;11.18;99.84;150464.94;1786497;79;21031;-59
2022/04/08 06:10:04;;;;;;;35.35;8.28;;;;;;;11.16;99.37;150459.75;1784686;79;21021;-60
2022/04/08 06:12:33;;;;;;;31.12;7.90;;;;;;;11.20;99.23;150467.53;1787005;79;20995;-59
2022/04/08 06:15:00;;;;;;;31.70;7.20;;;;;;;11.23;99.03;150476.59;1792119;79;21071;-59
2022/04/08 06:17:37;;;;;;;24.52;7.90;;;;;;;11.28;98.58;150488.28;1784970;79;21132;-60
2022/04/08 06:20:07;;;;;;;36.60;8.83;;;;;;;11.31;98.08;150496.06;1778993;79;21160;-59
2022/04/08 06:22:35;;;;;;;39.48;9.43;;;;;;;11.33;97.60;150501.27;1789963;79;21124;-59
2022/04/08 06:25:02;;;;;;;36.00;8.40;;;;;;;11.35;97.20;150506.44;1795827;78;20982;-59
2022/04/08 06:27:31;;;;;;;33.23;7.92;;;;;;;11.37;96.89;150511.64;1784880;79;21099;-60
2022/04/08 06:29:58;;;;;;;41.02;9.20;;;;;;;11.42;96.50;150524.66;1795955;79;20991;-60
2022/04/08 06:32:25;;;;;;;44.53;10.72;;;;;;;11.48;96.29;150537.63;1797097;78;21091;-60
2022/04/08 06:34:52;;;;;;;38.45;9.03;;;;;;;11.52;95.91;150549.33;1800919;78;21021;-60
2022/04/08 06:37:20;;;;;;;45.83;7.92;;;;;;;11.56;95.52;150559.72;1789352;78;21002;-60
2022/04/08 06:39:47;;;;;;;38.30;8.75;;;;;;;11.59;95.30;150567.50;1792518;79;21124;-60
2022/04/08 06:42:14;;;;;;;43.73;7.70;;;;;;;11.64;94.99;150579.20;1801932;79;20931;-60
2022/04/08 06:44:44;;;;;;;49.05;7.70;;;;;;;11.67;94.70;150586.98;1796159;79;21495;-61
2022/04/08 06:47:12;;;;;;;34.75;6.85;;;;;;;11.68;94.37;150589.58;1796984;79;20962;-59
2022/04/08 06:49:44;;;;;;;45.05;6.45;;;;;;;11.70;94.14;150593.45;1792966;78;21066;-61
2022/04/08 06:52:11;;;;;;;40.25;6.87;;;;;;;11.74;93.85;150603.87;1803599;78;21583;-59
2022/04/08 06:54:38;;;;;;;43.45;6.75;;;;;;;11.78;93.35;150612.94;1792579;79;21079;-61
2022/04/08 06:57:06;;;;;;;41.28;6.40;;;;;;;11.81;92.93;150620.72;1790346;78;21365;-60
2022/04/08 06:59:35;;;;;;;38.78;6.22;;;;;;;11.82;92.47;150623.31;1786946;79;21438;-60
2022/04/08 07:02:04;;;;;;;42.03;7.80;;;;;;;11.82;92.22;150623.31;1787477;79;21409;-60
2022/04/08 07:04:32;;;;;;;34.20;6.67;;;;;;;11.83;92.07;150625.97;1776735;79;21239;-60
2022/04/08 07:06:59;;;;;;;36.23;5.80;;;;;;;11.82;91.69;150624.64;1792909;79;21105;-60
2022/04/08 07:09:26;;;;;;;26.35;5.95;;;;;;;11.77;91.06;150610.34;1793135;78;21069;-60
2022/04/08 07:11:54;;;;;;;27.85;5.90;;;;;;;11.66;90.93;150584.39;1791541;79;21006;-60
2022/04/08 07:14:21;;;;;;;29.30;5.22;;;;;;;11.64;91.27;150577.88;1792075;78;21084;-60
2022/04/08 07:16:48;;;;;;;22.60;5.12;;;;;;;11.61;91.27;150571.41;1791963;79;21235;-60
2022/04/08 07:19:17;;;;;;;26.00;5.90;;;;;;;11.59;91.23;150567.50;1802039;79;21594;-61
2022/04/08 07:21:44;;;;;;;30.08;6.55;;;;;;;11.57;91.19;150560.98;1795818;79;21544;-61
2022/04/08 07:24:12;;;;;;;35.85;8.23;;;;;;;11.55;91.12;150555.80;1793100;79;21059;-60
2022/04/08 07:26:39;;;;;;;34.48;7.85;;;;;;;11.52;91.25;150548.02;1784169;79;21041;-61
2022/04/08 07:29:07;;;;;;;33.48;6.72;;;;;;;11.49;91.36;150540.22;1787152;78;21235;-61
2022/04/08 07:31:34;;;;;;;42.78;7.78;;;;;;;11.46;91.34;150535.03;1784621;79;21090;-61
2022/04/08 07:34:02;;;;;;;35.63;6.20;;;;;;;11.43;91.04;150527.25;1791643;79;21429;-60
2022/04/08 07:36:29;;;;;;;37.88;7.42;;;;;;;11.39;90.83;150516.88;1785534;78;21031;-61
2022/04/08 07:38:56;;;;;;;38.20;5.72;;;;;;;11.36;90.77;150507.78;1782137;78;21057;-61
2022/04/08 07:41:23;;;;;;;36.05;6.42;;;;;;;11.28;90.79;150488.28;1787833;79;21380;-61
2022/04/08 07:43:52;;;;;;;39.33;6.33;;;;;;;11.25;91.03;150481.78;1779047;79;21045;-60
2022/04/08 07:46:19;;;;;;;25.92;6.25;;;;;;;11.27;91.06;150487.02;1782990;79;21441;-59
2022/04/08 07:48:47;;;;;;;34.33;6.12;;;;;;;11.34;90.87;150502.58;1782573;79;21043;-59
2022/04/08 07:51:14;;;;;;;34.15;5.92;;;;;;;11.40;90.23;150519.47;1784231;79;20979;-60
2022/04/08 07:53:42;;;;;;;31.68;6.12;;;;;;;11.46;89.42;150533.72;1784079;79;21093;-61
2022/04/08 07:56:11;;;;;;;24.07;5.62;;;;;;;11.51;89.15;150545.42;1783882;79;21042;-61
2022/04/08 07:58:38;;;;;;;21.65;5.47;;;;;;;11.61;89.11;150572.69;1782095;79;21062;-59
2022/04/08 08:01:06;;;;;;;31.48;6.83;;;;;;;11.77;88.00;150611.66;1795491;78;21011;-61
2022/04/08 08:03:34;;;;;;;20.55;5.70;;;;;;;11.86;87.28;150633.75;1785135;78;22090;-60
2022/04/08 08:06:03;;;;;;;16.90;4.30;;;;;;;11.98;87.18;150664.89;1789239;79;22208;-59
2022/04/08 08:08:32;;;;;;;13.00;3.33;;;;;;;12.17;86.13;150711.72;1781442;79;20998;-60
2022/04/08 08:11:00;;;;;;;17.10;4.20;;;;;;;12.30;84.27;150745.52;1789754;79;21031;-60
2022/04/08 08:13:27;;;;;;;17.25;3.72;;;;;;;12.41;83.25;150772.81;1791157;79;21124;-61
2022/04/08 08:15:54;;;;;;;11.60;3.20;;;;;;;12.42;81.50;150774.08;1788875;79;21058;-61
2022/04/08 08:18:24;;;;;;;15.88;3.80;;;;;;;12.45;81.62;150783.19;1786955;79;22089;-60
2022/04/08 08:20:51;;;;;;;9.83;3.42;;;;;;;12.55;81.60;150807.89;1794952;78;21007;-60
2022/04/08 08:23:21;;;;;;;16.20;2.90;;;;;;;12.75;81.09;150857.28;1775745;78;21434;-60
2022/04/08 08:25:49;;;;;;;17.25;3.90;;;;;;;12.93;79.48;150901.44;1776609;79;21030;-60
2022/04/08 08:28:16;;;;;;;8.60;2.52;;;;;;;13.12;78.94;150950.84;1773207;80;21101;-61
2022/04/08 08:30:45;;;;;;;9.38;2.75;;;;;;;13.30;77.98;150995.05;1763248;81;21029;-60
2022/04/08 08:33:13;;;;;;;7.58;2.25;;;;;;;13.41;76.01;151023.69;1770913;80;21040;-60
2022/04/08 08:35:40;;;;;;;14.38;3.42;;;;;;;13.39;74.51;151018.48;1792401;79;21039;-60
2022/04/08 08:38:09;;;;;;;15.63;3.60;;;;;;;13.41;74.68;151022.34;1771534;81;20989;-60
2022/04/08 08:40:37;;;;;;;24.05;4.80;;;;;;;13.45;74.66;151034.13;1767352;81;21131;-62
2022/04/08 08:43:04;;;;;;;22.95;4.78;;;;;;;13.51;73.61;151047.11;1760450;81;21199;-60
2022/04/08 08:45:35;;;;;;;15.98;3.90;;;;;;;13.48;73.63;151039.31;1742469;81;21017;-62
2022/04/08 08:48:05;;;;;;;22.22;4.50;;;;;;;13.52;73.61;151051.03;1766483;81;20999;-61
2022/04/08 08:50:32;;;;;;;16.20;4.12;;;;;;;13.54;72.82;151054.91;1760293;81;21314;-60
2022/04/08 08:53:01;;;;;;;18.85;4.20;;;;;;;13.45;71.75;151034.13;1760404;81;21510;-60
2022/04/08 08:55:30;;;;;;;17.37;3.98;;;;;;;13.34;72.48;151005.44;1760428;79;21000;-61
2022/04/08 08:57:57;;;;;;;17.60;3.70;;;;;;;13.35;72.27;151006.77;1760537;79;21024;-60
2022/04/08 09:00:27;;;;;;;13.70;3.60;;;;;;;13.30;72.73;150995.05;1760127;79;20956;-61
2022/04/08 09:02:54;;;;;;;16.02;3.60;;;;;;;13.31;72.92;150997.66;1760440;79;21018;-60
2022/04/08 09:05:24;;;;;;;16.12;3.58;;;;;;;13.33;72.44;151002.84;1766501;81;21107;-59
2022/04/08 09:07:58;;;;;;;10.98;3.12;;;;;;;13.25;72.63;150982.06;1769790;81;21061;-60
2022/04/08 09:10:30;;;;;;;14.47;3.15;;;;;;;13.26;72.78;150984.66;1768968;81;21697;-60
2022/04/08 09:12:57;;;;;;;13.72;4.15;;;;;;;13.32;73.00;151000.25;1746637;81;21435;-59
2022/04/08 09:15:25;;;;;;;13.38;3.37;;;;;;;13.48;72.77;151039.31;1769832;81;21096;-59
2022/04/08 09:17:53;;;;;;;8.80;3.08;;;;;;;13.58;72.32;151065.31;1770066;81;21024;-60
2022/04/08 09:20:21;;;;;;;12.98;3.22;;;;;;;13.69;71.33;151093.94;1769523;81;21230;-60
2022/04/08 09:22:58;;;;;;;17.82;3.70;;;;;;;13.73;70.39;151103.06;1772946;80;21268;-61
2022/04/08 09:25:26;;;;;;;17.20;4.08;;;;;;;13.74;70.57;151106.94;1778650;80;21146;-60
2022/04/08 09:27:58;;;;;;;19.07;3.70;;;;;;;13.82;70.28;151125.17;1778828;80;20929;-61
2022/04/08 09:30:24;;;;;;;14.15;4.45;;;;;;;13.87;69.52;151138.17;1778229;80;21155;-61
2022/04/08 09:32:54;;;;;;;12.25;3.98;;;;;;;13.92;69.06;151151.17;1778655;80;21752;-60
2022/04/08 09:35:24;;;;;;;13.65;3.75;;;;;;;13.89;67.30;151143.38;1778227;80;21055;-60
2022/04/08 09:38:03;;;;;;;21.25;3.55;;;;;;;13.78;68.41;151114.72;1778496;80;21779;-61
2022/04/08 09:40:42;;;;;;;13.53;3.83;;;;;;;13.81;68.83;151123.84;1778553;80;21255;-61
2022/04/08 09:43:12;;;;;;;21.48;4.25;;;;;;;13.90;68.22;151145.97;1751080;80;20948;-60
2022/04/08 09:45:43;;;;;;;13.55;3.83;;;;;;;13.99;67.85;151168.09;1774553;80;20932;-61
2022/04/08 09:48:11;;;;;;;10.88;3.30;;;;;;;14.18;67.74;151216.20;1774092;80;20981;-61
2022/04/08 09:50:42;;;;;;;13.93;3.30;;;;;;;14.35;65.81;151259.12;1778474;79;21015;-61
2022/04/08 09:53:12;;;;;;;16.35;4.15;;;;;;;14.35;65.17;151257.84;1778681;80;21449;-62
2022/04/08 09:55:44;;;;;;;14.85;3.37;;;;;;;14.35;64.96;151259.12;1721322;82;20948;-60
2022/04/08 09:58:12;;;;;;;17.87;4.33;;;;;;;14.35;64.54;151257.84;1749442;82;20917;-60
2022/04/08 10:00:39;;;;;;;12.95;3.33;;;;;;;14.37;64.27;151264.38;1755552;80;21597;-61
2022/04/08 10:03:09;;;;;;;10.13;3.05;;;;;;;14.36;63.54;151260.45;1748581;80;21036;-61
2022/04/08 10:05:37;;;;;;;16.02;3.33;;;;;;;14.27;63.85;151239.66;1776226;80;21053;-60
2022/04/08 10:08:09;;;;;;;18.05;4.25;;;;;;;14.29;64.30;151244.84;1726460;82;21550;-61
2022/04/08 10:10:52;;;;;;;12.80;3.05;;;;;;;14.35;64.49;151259.12;1786891;79;21546;-60
2022/04/08 10:13:45;;;;;;;16.82;3.72;;;;;;;14.49;64.21;151294.30;1791198;78;22191;-60
2022/04/08 10:16:20;;;;;;;18.52;3.67;;;;;;;14.62;63.96;151326.83;1743970;79;21419;-60
2022/04/08 10:18:50;;;;;;;18.90;4.30;;;;;;;14.82;63.87;151376.34;1752265;80;21518;-61
2022/04/08 10:21:17;;;;;;;21.00;4.37;;;;;;;14.93;62.69;151403.67;1800049;78;21054;-62
2022/04/08 10:23:51;;;;;;;19.23;3.80;;;;;;;14.98;61.76;151417.95;1787493;79;21133;-61
2022/04/08 10:26:27;;;;;;;18.70;4.42;;;;;;;14.99;60.09;151420.56;1785519;79;21463;-59
2022/04/08 10:28:55;;;;;;;19.40;3.67;;;;;;;14.92;60.29;151401.03;1797813;79;21104;-60
2022/04/08 10:31:24;;;;;;;13.45;3.30;;;;;;;14.93;60.55;151403.67;1764830;79;20989;-60
2022/04/08 10:33:59;;;;;;;24.32;3.85;;;;;;;14.96;60.25;151411.48;1726288;79;21671;-59
2022/04/08 10:36:42;;;;;;;17.73;4.28;;;;;;;14.96;59.53;151411.48;1776264;79;22150;-60
2022/04/08 10:39:17;;;;;;;16.02;3.52;;;;;;;14.99;59.51;151420.56;1790905;79;21056;-60
2022/04/08 10:42:06;;;;;;;13.65;3.58;;;;;;;15.05;59.13;151434.89;1796125;79;21067;-61
2022/04/08 10:44:35;;;;;;;21.87;4.58;;;;;;;15.11;58.25;151449.22;1772610;79;21180;-60
2022/04/08 10:47:20;;;;;;;12.70;3.15;;;;;;;15.17;58.48;151464.83;1770621;79;20991;-60
2022/04/08 10:49:58;;;;;;;18.70;4.17;;;;;;;15.29;58.48;151494.78;1793586;79;21113;-60
2022/04/08 10:52:31;;;;;;;14.90;3.75;;;;;;;15.45;57.81;151536.45;1754343;79;21590;-61
2022/04/08 10:55:11;;;;;;;18.55;4.00;;;;;;;15.54;56.78;151557.27;1796926;78;21049;-61
2022/04/08 10:57:45;;;;;;;14.05;3.90;;;;;;;15.51;56.74;151549.47;1786246;78;21308;-61
2022/04/08 11:00:19;;;;;;;16.67;4.10;;;;;;;15.48;56.84;151542.98;1794473;79;20994;-59
2022/04/08 11:02:50;;;;;;;18.20;4.30;;;;;;;15.49;57.50;151544.25;1773407;79;21184;-59
2022/04/08 11:05:17;;;;;;;16.77;4.28;;;;;;;15.41;58.64;151526.05;1745724;79;21484;-59
2022/04/08 11:07:48;;;;;;;15.23;5.45;;;;;;;15.30;58.93;151497.38;1767595;79;21033;-60
2022/04/08 11:10:19;;;;;;;23.67;5.87;;;;;;;15.21;61.33;151473.97;1801222;79;21062;-61
2022/04/08 11:12:51;;;;;;;22.67;5.90;;;;;;;14.94;62.67;151406.28;1790437;79;21089;-60
2022/04/08 11:15:25;;;;;;;22.93;5.40;;;;;;;14.56;64.35;151311.19;1794544;78;21360;-60
2022/04/08 11:17:53;;;;;;;22.95;5.28;;;;;;;14.20;66.18;151221.41;1757477;79;21051;-61
2022/04/08 11:20:22;;;;;;;16.42;4.42;;;;;;;13.99;67.13;151169.36;1797844;78;21622;-60
2022/04/08 11:22:56;;;;;;;22.17;5.40;;;;;;;13.80;67.91;151121.25;1793388;78;21133;-61
2022/04/08 11:25:27;;;;;;;18.67;5.08;;;;;;;13.65;68.61;151082.22;1746125;79;21035;-60